地図

経路データ

SID SEASON NUMBER BASIN SUBBASIN NAME ISO_TIME NATURE LAT LON WMO_WIND WMO_PRES WMO_AGENCY TRACK_TYPE DIST2LAND LANDFALL IFLAG USA_AGENCY USA_ATCF_ID USA_LAT USA_LON USA_RECORD USA_STATUS USA_WIND USA_PRES USA_SSHS USA_R34_NE USA_R34_SE USA_R34_SW USA_R34_NW USA_R50_NE USA_R50_SE USA_R50_SW USA_R50_NW USA_R64_NE USA_R64_SE USA_R64_SW USA_R64_NW USA_POCI USA_ROCI USA_RMW USA_EYE TOKYO_LAT TOKYO_LON TOKYO_GRADE TOKYO_WIND TOKYO_PRES TOKYO_R50_DIR TOKYO_R50_LONG TOKYO_R50_SHORT TOKYO_R30_DIR TOKYO_R30_LONG TOKYO_R30_SHORT TOKYO_LAND CMA_LAT CMA_LON CMA_CAT CMA_WIND CMA_PRES HKO_LAT HKO_LON HKO_CAT HKO_WIND HKO_PRES NEWDELHI_LAT NEWDELHI_LON NEWDELHI_GRADE NEWDELHI_WIND NEWDELHI_PRES NEWDELHI_CI NEWDELHI_DP NEWDELHI_POCI REUNION_LAT REUNION_LON REUNION_TYPE REUNION_WIND REUNION_PRES REUNION_TNUM REUNION_CI REUNION_RMW REUNION_R34_NE REUNION_R34_SE REUNION_R34_SW REUNION_R34_NW REUNION_R50_NE REUNION_R50_SE REUNION_R50_SW REUNION_R50_NW REUNION_R64_NE REUNION_R64_SE REUNION_R64_SW REUNION_R64_NW BOM_LAT BOM_LON BOM_TYPE BOM_WIND BOM_PRES BOM_TNUM BOM_CI BOM_RMW BOM_R34_NE BOM_R34_SE BOM_R34_SW BOM_R34_NW BOM_R50_NE BOM_R50_SE BOM_R50_SW BOM_R50_NW BOM_R64_NE BOM_R64_SE BOM_R64_SW BOM_R64_NW BOM_ROCI BOM_POCI BOM_EYE BOM_POS_METHOD BOM_PRES_METHOD NADI_LAT NADI_LON NADI_CAT NADI_WIND NADI_PRES WELLINGTON_LAT WELLINGTON_LON WELLINGTON_WIND WELLINGTON_PRES DS824_LAT DS824_LON DS824_STAGE DS824_WIND DS824_PRES TD9636_LAT TD9636_LON TD9636_STAGE TD9636_WIND TD9636_PRES TD9635_LAT TD9635_LON TD9635_WIND TD9635_PRES TD9635_ROCI NEUMANN_LAT NEUMANN_LON NEUMANN_CLASS NEUMANN_WIND NEUMANN_PRES MLC_LAT MLC_LON MLC_CLASS MLC_WIND MLC_PRES USA_GUST BOM_GUST BOM_GUST_PER REUNION_GUST REUNION_GUST_PER USA_SEAHGT USA_SEARAD_NE USA_SEARAD_SE USA_SEARAD_SW USA_SEARAD_NW STORM_SPEED STORM_DIR
1912075S13137 1912 14 SP EA NOT_NAMED 1912-03-14 12:00:00 NR -12.6000 136.900 main 10 0 __________O___ -1 -12.6000 136.900 7 2 278
1912075S13137 1912 14 SP EA NOT_NAMED 1912-03-14 15:00:00 NR -12.5887 136.819 main 0 0 __________P___ -1 -12.5887 136.819 7 2 275
1912075S13137 1912 14 SP EA NOT_NAMED 1912-03-14 18:00:00 NR -12.5820 136.700 main 0 0 __________P___ -1 -12.5820 136.700 7 3 271
1912075S13137 1912 14 SP EA NOT_NAMED 1912-03-14 21:00:00 NR -12.5843 136.506 main 0 0 __________P___ -1 -12.5843 136.506 7 5 268
1912075S13137 1912 14 SP EA NOT_NAMED 1912-03-15 00:00:00 NR -12.6000 136.200 main 0 0 __________O___ -1 -12.6000 136.200 7 7 266
1912075S13137 1912 14 SP EA NOT_NAMED 1912-03-15 03:00:00 NR -12.6320 135.758 main 0 0 __________P___ -1 -12.6320 135.758 7 10 265
1912075S13137 1912 14 SP EA NOT_NAMED 1912-03-15 06:00:00 NR -12.6781 135.212 main 0 0 __________P___ -1 -12.6781 135.212 7 11 265
1912075S13137 1912 14 SI WA NOT_NAMED 1912-03-15 09:00:00 NR -12.7351 134.611 main 0 0 __________P___ -1 -12.7351 134.611 7 12 264
1912075S13137 1912 14 SI WA NOT_NAMED 1912-03-15 12:00:00 NR -12.8000 134.000 main 0 0 __________O___ -1 -12.8000 134.000 7 12 263
1912075S13137 1912 14 SI WA NOT_NAMED 1912-03-15 15:00:00 NR -12.8761 133.410 main 0 0 __________P___ -1 -12.8761 133.410 7 12 262
1912075S13137 1912 14 SI WA NOT_NAMED 1912-03-15 18:00:00 NR -12.9578 132.825 main 0 0 __________P___ -1 -12.9578 132.825 7 11 262
1912075S13137 1912 14 SI WA NOT_NAMED 1912-03-15 21:00:00 NR -13.0356 132.278 main 0 0 __________P___ -1 -13.0356 132.278 7 10 262
1912075S13137 1912 14 SI WA NOT_NAMED 1912-03-16 00:00:00 NR -13.1000 131.800 main 0 0 __________O___ -1 -13.1000 131.800 7 8 263
1912075S13137 1912 14 SI WA NOT_NAMED 1912-03-16 03:00:00 NR -13.1386 131.436 main 0 0 __________P___ -1 -13.1386 131.436 7 6 264
1912075S13137 1912 14 SI WA NOT_NAMED 1912-03-16 06:00:00 NR -13.1641 131.140 main 0 0 __________P___ -1 -13.1641 131.140 7 6 265
1912075S13137 1912 14 SI WA NOT_NAMED 1912-03-16 09:00:00 NR -13.1825 130.874 main 0 0 __________P___ -1 -13.1825 130.874 7 5 266
1912075S13137 1912 14 SI WA NOT_NAMED 1912-03-16 12:00:00 NR -13.2000 130.600 main 0 0 __________O___ -1 -13.2000 130.600 7 6 265
1912075S13137 1912 14 SI WA NOT_NAMED 1912-03-16 15:00:00 NR -13.2288 130.285 main 0 0 __________P___ -1 -13.2288 130.285 7 6 265
1912075S13137 1912 14 SI WA NOT_NAMED 1912-03-16 18:00:00 NR -13.2571 129.952 main 15 15 __________P___ -1 -13.2571 129.952 7 7 265
1912075S13137 1912 14 SI WA NOT_NAMED 1912-03-16 21:00:00 NR -13.2818 129.594 main 31 31 __________P___ -1 -13.2818 129.594 7 7 267
1912075S13137 1912 14 SI WA NOT_NAMED 1912-03-17 00:00:00 NR -13.3000 129.200 main 68 68 __________O___ -1 -13.3000 129.200 7 8 269
1912075S13137 1912 14 SI WA NOT_NAMED 1912-03-17 03:00:00 NR -13.2909 128.769 main 110 110 __________P___ -1 -13.2909 128.769 7 9 271
1912075S13137 1912 14 SI WA NOT_NAMED 1912-03-17 06:00:00 NR -13.2774 128.302 main 119 89 __________P___ -1 -13.2774 128.302 7 9 271
1912075S13137 1912 14 SI WA NOT_NAMED 1912-03-17 09:00:00 NR -13.2752 127.809 main 89 60 __________P___ -1 -13.2752 127.809 7 10 269
1912075S13137 1912 14 SI WA NOT_NAMED 1912-03-17 12:00:00 NR -13.3000 127.300 main 60 55 __________O___ -1 -13.3000 127.300 7 10 267
1912075S13137 1912 14 SI WA NOT_NAMED 1912-03-17 15:00:00 NR -13.3299 126.821 main 57 55 __________P___ -1 -13.3299 126.821 7 10 264
1912075S13137 1912 14 SI WA NOT_NAMED 1912-03-17 18:00:00 NR -13.3939 126.324 main 67 57 __________P___ -1 -13.3939 126.324 7 10 260
1912075S13137 1912 14 SI WA NOT_NAMED 1912-03-17 21:00:00 NR -13.5110 125.789 main 64 64 __________P___ -1 -13.5110 125.789 7 11 254
1912075S13137 1912 14 SI WA NOT_NAMED 1912-03-18 00:00:00 NR -13.7000 125.200 main 79 79 __________O___ -1 -13.7000 125.200 7 13 251
1912075S13137 1912 14 SI WA NOT_NAMED 1912-03-18 03:00:00 NR -13.9505 124.500 main 101 101 __________P___ -1 -13.9505 124.500 7 15 248
1912075S13137 1912 14 SI WA NOT_NAMED 1912-03-18 06:00:00 NR -14.2737 123.750 main 147 147 __________P___ -1 -14.2737 123.750 7 16 244
1912075S13137 1912 14 SI WA NOT_NAMED 1912-03-18 09:00:00 NR -14.6599 123.000 main 180 169 __________P___ -1 -14.6599 123.000 7 16 240
1912075S13137 1912 14 SI WA NOT_NAMED 1912-03-18 12:00:00 NR -15.1000 122.300 main 169 154 __________O___ -1 -15.1000 122.300 7 16 232
1912075S13137 1912 14 SI WA NOT_NAMED 1912-03-18 15:00:00 NR -15.6265 121.706 main 162 154 __________P___ -1 -15.6265 121.706 7 16 225
1912075S13137 1912 14 SI WA NOT_NAMED 1912-03-18 18:00:00 NR -16.1938 121.169 main 154 154 __________P___ -1 -16.1938 121.169 7 15 222
1912075S13137 1912 14 SI WA NOT_NAMED 1912-03-18 21:00:00 NR -16.7392 120.672 main 173 169 __________P___ -1 -16.7392 120.672 7 14 223
1912075S13137 1912 14 SI WA NOT_NAMED 1912-03-19 00:00:00 NR -17.2000 120.200 main 206 206 __________O___ -1 -17.2000 120.200 7 13 238
1912075S13137 1912 14 SI WA NOT_NAMED 1912-03-19 01:00:00 NR -17.2050 119.893 bom main 237 237 ______O___P___ -1 -16.8000 119.300 -17.3063 120.042 7 12 257
1912075S13137 1912 14 SI WA NOT_NAMED 1912-03-19 03:00:00 NR -17.3334 119.583 main 265 265 ______P___P___ -1 -17.0392 119.281 -17.4805 119.735 7 8 240
1912075S13137 1912 14 SI WA NOT_NAMED 1912-03-19 06:00:00 NR -17.5535 119.272 main 273 256 ______P___P___ -1 -17.3929 119.249 -17.6740 119.290 7 7 230
1912075S13137 1912 14 SI WA NOT_NAMED 1912-03-19 09:00:00 NR -17.7820 119.030 main 257 235 ______P___P___ -1 -17.7335 119.210 -17.8305 118.851 7 7 225
1912075S13137 1912 14 SI WA NOT_NAMED 1912-03-19 12:00:00 NR -18.0265 118.779 main 237 210 ______P___O___ -1 -18.0530 119.159 -18.0000 118.400 7 8 225
1912075S13137 1912 14 SI WA NOT_NAMED 1912-03-19 15:00:00 NR -18.3069 118.469 main 210 192 ______P___P___ -1 -18.3434 119.092 -18.2704 117.846 7 8 227
1912075S13137 1912 14 SI WA NOT_NAMED 1912-03-19 18:00:00 NR -18.5778 118.147 main 197 180 ______P___P___ -1 -18.5969 119.006 -18.5586 117.289 7 8 229
1912075S13137 1912 14 SI WA NOT_NAMED 1912-03-19 21:00:00 NR -18.8239 117.841 main 181 162 ______P___P___ -1 -18.8055 118.894 -18.8424 116.787 7 7 230
1912075S13137 1912 14 SI WA NOT_NAMED 1912-03-20 00:00:00 NR -19.0306 117.577 main 165 154 ______P___O___ -1 -18.9612 118.754 -19.1000 116.400 7 6 230
1912075S13137 1912 14 SI WA NOT_NAMED 1912-03-20 01:00:00 NR -19.0863 117.508 bom main 158 152 ______O___P___ -1 -19.0000 118.700 -19.1726 116.316 7 5 230
1912075S13137 1912 14 SI WA NOT_NAMED 1912-03-20 03:00:00 NR -19.1822 117.390 main 152 148 ______P___P___ -1 -19.0574 118.581 -19.3069 116.198 7 4 230
1912075S13137 1912 14 SI WA NOT_NAMED 1912-03-20 06:00:00 NR -19.2946 117.247 main 151 137 ______P___P___ -1 -19.1027 118.381 -19.4865 116.114 7 3 231
1912075S13137 1912 14 SI WA NOT_NAMED 1912-03-20 09:00:00 NR -19.3816 117.130 main 137 124 ______P___P___ -1 -19.1153 118.163 -19.6479 116.098 7 3 233
1912075S13137 1912 14 SI WA NOT_NAMED 1912-03-20 12:00:00 NR -19.4569 117.018 main 124 123 ______P___O___ -1 -19.1139 117.936 -19.8000 116.100 7 3 235
1912075S13137 1912 14 SI WA NOT_NAMED 1912-03-20 15:00:00 NR -19.5336 116.895 main 123 112 ______P___P___ -1 -19.1170 117.712 -19.9503 116.079 7 2 235
1912075S13137 1912 14 SI WA NOT_NAMED 1912-03-20 18:00:00 NR -19.5535 116.871 main 112 112 ______P___P___ -1 -19.1433 117.499 -20.1004 116.033 7 0 232
1912075S13137 1912 14 SI WA NOT_NAMED 1912-03-20 21:00:00 NR -19.5577 116.861 main 112 111 ______P___P___ -1 -19.2115 117.307 -20.2502 115.971 7 0 0
1912075S13137 1912 14 SI WA NOT_NAMED 1912-03-21 00:00:00 NR -19.5523 116.896 main 112 112 ______P___O___ -1 -19.3403 117.145 -20.4000 115.900 7 4 55
1912075S13137 1912 14 SI WA NOT_NAMED 1912-03-21 01:00:00 NR -19.4000 117.100 bom main 137 124 ______O_______ -1 -19.4000 117.100 7 2 91
1912075S13137 1912 14 SI WA NOT_NAMED 1912-03-21 03:00:00 NR -19.5543 116.997 main 113 90 ______P_______ -1 -19.5543 116.997 7 5 204
1912075S13137 1912 14 SI WA NOT_NAMED 1912-03-21 06:00:00 NR -19.8125 116.903 main 90 78 ______P_______ -1 -19.8125 116.903 7 5 194
1912075S13137 1912 14 SI WA NOT_NAMED 1912-03-21 07:00:00 NR -19.9000 116.900 bom main 78 56 ______O_______ -1 -19.9000 116.900 7 5 170
1912075S13137 1912 14 SI WA NOT_NAMED 1912-03-21 09:00:00 NR -20.0707 116.939 main 56 39 ______P_______ -1 -20.0707 116.939 7 6 156
1912075S13137 1912 14 SI WA NOT_NAMED 1912-03-21 12:00:00 NR -20.3241 117.104 main 44 15 ______P_______ -1 -20.3241 117.104 6 142
1912075S13137 1912 14 SI WA NOT_NAMED 1912-03-21 15:00:00 NR -20.5626 117.353 main 22 22 ______P_______ -1 -20.5626 117.353 7 135
1912075S13137 1912 14 SI WA NOT_NAMED 1912-03-21 15:30:00 NR -20.6000 117.400 977 bom main 22 0 ______O_______ -1 -20.6000 117.400 977 4 7 128
1912075S13137 1912 14 SI WA NOT_NAMED 1912-03-21 18:00:00 NR -20.7752 117.645 main 0 0 ______P_______ -1 -20.7752 117.645 7 125
1912075S13137 1912 14 SI WA NOT_NAMED 1912-03-21 21:00:00 NR -20.9654 117.961 main 0 0 ______P_______ -1 -20.9654 117.961 7 121
1912075S13137 1912 14 SI WA NOT_NAMED 1912-03-22 00:00:00 NR -21.1423 118.289 main 0 0 ______P_______ -1 -21.1423 118.289 7 120
1912075S13137 1912 14 SI WA NOT_NAMED 1912-03-22 01:00:00 NR -21.2000 118.400 bom main 0 ______O_______ -1 -21.2000 118.400 7 119

デジタル台風データ・検索

IBTrACS Databaseについて

本データベースは、米国NOAAが公開する1842年以降の世界の熱帯低気圧のベストトラックデータアーカイブInternational Best Track Archive for Climate Stewardship (IBTrACS)を、ウェブで閲覧しやすい形式に変換したものです。

最終更新日:2021-12-06